Time;durP1;ratioP1;P1;durP2;ratioP2;P2;SDS_P1;SDS_P2;PMS_P1;PMS_P2;Temp;Humidity;BMP_temperature;BMP_pressure;BME280_temperature;BME280_humidity;BME280_pressure;Samples;Min_cycle;Max_cycle;Signal;HPM_P1;HPM_P2
2021/09/22 00:01:33;;;;;;;34.63;15.20;;;;;;;5.30;100.00;94907.81;5116725;28;20207;-76
2021/09/22 00:04:00;;;;;;;39.87;15.63;;;;;;;5.22;100.00;94909.50;5116518;28;20198;-76
2021/09/22 00:06:26;;;;;;;42.00;17.00;;;;;;;5.25;100.00;94904.84;5116304;28;20738;-75
2021/09/22 00:08:56;;;;;;;52.20;18.67;;;;;;;5.33;100.00;94902.38;5116285;28;20255;-75
2021/09/22 00:11:23;;;;;;;45.70;16.77;;;;;;;5.34;100.00;94901.41;5116190;28;20198;-76
2021/09/22 00:13:52;;;;;;;55.40;19.40;;;;;;;5.47;100.00;94898.50;5115990;28;20650;-75
2021/09/22 00:16:19;;;;;;;48.43;17.97;;;;;;;5.54;100.00;94902.16;5116339;28;20198;-75
2021/09/22 00:18:47;;;;;;;46.67;17.93;;;;;;;5.54;100.00;94904.75;5116037;28;20213;-75
2021/09/22 00:21:16;;;;;;;63.63;24.75;;;;;;;5.57;100.00;94904.47;5115382;28;20853;-75
2021/09/22 00:23:42;;;;;;;58.67;21.70;;;;;;;5.64;100.00;94904.72;5116208;28;20201;-76
2021/09/22 00:26:09;;;;;;;50.80;18.43;;;;;;;5.56;100.00;94907.19;5115712;28;20254;-76
2021/09/22 00:28:38;;;;;;;43.37;17.47;;;;;;;5.60;100.00;94905.16;5115784;28;20232;-76
2021/09/22 00:31:08;;;;;;;50.77;18.57;;;;;;;5.64;100.00;94904.72;5115971;28;20197;-75
2021/09/22 00:33:34;;;;;;;50.17;19.63;;;;;;;5.69;100.00;94902.53;5115772;28;20205;-76
2021/09/22 00:36:02;;;;;;;47.57;18.57;;;;;;;5.67;100.00;94906.22;5115639;28;20193;-76
2021/09/22 00:38:29;;;;;;;49.77;18.37;;;;;;;5.62;100.00;94903.25;5115579;28;20206;-76
2021/09/22 00:40:58;;;;;;;46.47;18.87;;;;;;;5.62;100.00;94895.47;5115524;28;20588;-75
2021/09/22 00:43:25;;;;;;;41.97;16.23;;;;;;;5.47;100.00;94900.28;5115554;28;20563;-76
2021/09/22 00:45:51;;;;;;;46.97;18.13;;;;;;;5.56;100.00;94897.69;5115590;28;20189;-76
2021/09/22 00:48:18;;;;;;;46.43;18.47;;;;;;;5.54;100.00;94896.97;5115440;28;20225;-75
2021/09/22 00:50:47;;;;;;;44.70;18.37;;;;;;;5.51;100.00;94894.69;5115294;28;20293;-75
2021/09/22 00:53:15;;;;;;;56.30;19.60;;;;;;;5.49;100.00;94906.94;5112764;28;20228;-76
2021/09/22 00:55:42;;;;;;;39.93;16.87;;;;;;;5.42;100.00;94912.84;5094427;28;20213;-75
2021/09/22 00:58:09;;;;;;;46.03;18.07;;;;;;;5.45;100.00;94910.78;5094959;28;20240;-75
2021/09/22 01:00:37;;;;;;;48.37;17.80;;;;;;;5.41;100.00;94912.00;5094927;28;20206;-75
2021/09/22 01:03:04;;;;;;;45.57;17.60;;;;;;;5.27;100.00;94902.94;5094827;28;20225;-75
2021/09/22 01:05:32;;;;;;;35.03;16.77;;;;;;;5.19;100.00;94901.03;5094856;28;20284;-75
2021/09/22 01:07:58;;;;;;;37.73;16.37;;;;;;;5.11;100.00;94915.63;5094415;28;20233;-76
2021/09/22 01:10:26;;;;;;;37.23;16.30;;;;;;;5.15;100.00;94915.22;5094753;28;20198;-75
2021/09/22 01:12:53;;;;;;;56.85;23.67;;;;;;;5.15;100.00;94920.38;5093811;28;20791;-75
2021/09/22 01:15:31;;;;;;;58.30;20.33;;;;;;;5.34;100.00;94921.31;5094883;28;20220;-75
2021/09/22 01:17:58;;;;;;;46.20;18.47;;;;;;;5.30;100.00;94917.38;5094579;28;20208;-75
2021/09/22 01:20:27;;;;;;;49.60;19.17;;;;;;;5.26;100.00;94916.84;5094270;28;20198;-75
2021/09/22 01:22:54;;;;;;;42.60;17.23;;;;;;;5.22;100.00;94912.88;5094561;28;20286;-75
2021/09/22 01:25:21;;;;;;;40.10;16.77;;;;;;;5.17;100.00;94909.91;5094279;28;20208;-75
2021/09/22 01:27:50;;;;;;;43.50;16.37;;;;;;;5.06;100.00;94903.09;5094336;28;20284;-75
2021/09/22 01:30:18;;;;;;;42.20;16.47;;;;;;;4.99;100.00;94904.59;5094456;28;20194;-75
2021/09/22 01:32:52;;;;;;;50.27;18.13;;;;;;;5.12;100.00;94910.31;5094171;28;20194;-76
2021/09/22 01:35:19;;;;;;;47.23;17.63;;;;;;;5.07;100.00;94907.31;5094460;28;20221;-75
2021/09/22 01:37:45;;;;;;;44.70;17.40;;;;;;;4.99;100.00;94907.19;5094224;28;20202;-75
2021/09/22 01:40:14;;;;;;;45.03;16.90;;;;;;;4.93;100.00;94905.16;5094018;28;20561;-75
2021/09/22 01:42:41;;;;;;;46.73;17.83;;;;;;;4.96;100.00;94910.88;5094030;28;20664;-75
2021/09/22 01:45:09;;;;;;;46.60;17.13;;;;;;;4.89;100.00;94908.97;5094016;28;20228;-76
2021/09/22 01:47:36;;;;;;;44.20;16.50;;;;;;;4.80;100.00;94916.59;5093754;28;20203;-76
2021/09/22 01:50:04;;;;;;;48.13;18.17;;;;;;;5.00;100.00;94903.66;5097432;28;20587;-75
2021/09/22 01:52:32;;;;;;;42.57;17.23;;;;;;;4.95;100.00;94911.03;5114343;28;20200;-75
2021/09/22 01:54:58;;;;;;;45.07;17.43;;;;;;;4.97;100.00;94907.31;5114223;28;20213;-75
2021/09/22 01:57:29;;;;;;;46.60;16.80;;;;;;;4.83;100.00;94912.94;5114064;28;20667;-75
2021/09/22 01:59:56;;;;;;;41.50;16.03;;;;;;;4.77;100.00;94916.06;5114083;28;20201;-75
2021/09/22 02:02:22;;;;;;;48.33;16.73;;;;;;;4.81;100.00;94913.06;5114261;28;20201;-75
2021/09/22 02:04:49;;;;;;;44.60;16.40;;;;;;;4.73;100.00;94915.53;5114104;28;20587;-75
2021/09/22 02:07:15;;;;;;;42.17;17.00;;;;;;;4.71;100.00;94916.59;5113270;28;20676;-75
2021/09/22 02:09:42;;;;;;;60.07;18.40;;;;;;;4.80;100.00;94916.59;5113646;28;20225;-75
2021/09/22 02:12:09;;;;;;;52.33;18.73;;;;;;;4.82;100.00;94925.03;5113878;28;20393;-75
2021/09/22 02:14:37;;;;;;;53.77;19.13;;;;;;;4.96;100.00;94923.00;5113716;28;20208;-75
2021/09/22 02:17:04;;;;;;;56.73;19.47;;;;;;;4.99;100.00;94920.94;5113929;28;20197;-76
2021/09/22 02:19:30;;;;;;;62.80;20.27;;;;;;;4.99;100.00;94914.97;5113725;28;20560;-75
2021/09/22 02:21:57;;;;;;;56.07;19.43;;;;;;;4.97;100.00;94920.25;5113952;28;20201;-75
2021/09/22 02:24:23;;;;;;;58.97;16.97;;;;;;;4.87;100.00;94921.25;5113622;28;20197;-75
2021/09/22 02:26:52;;;;;;;41.37;15.60;;;;;;;4.74;100.00;94911.97;5113526;28;20229;-76
2021/09/22 02:29:19;;;;;;;35.13;14.33;;;;;;;4.59;100.00;94906.38;5113330;28;20316;-75
2021/09/22 02:31:47;;;;;;;43.03;16.00;;;;;;;4.51;100.00;94910.59;5113736;28;20203;-75
2021/09/22 02:34:15;;;;;;;41.97;17.03;;;;;;;4.55;100.00;94914.56;5113477;28;20201;-75
2021/09/22 02:36:43;;;;;;;47.83;17.77;;;;;;;4.59;100.00;94914.13;5113408;28;20201;-75
2021/09/22 02:39:13;;;;;;;55.77;17.77;;;;;;;4.62;100.00;94907.88;5113449;28;20236;-75
2021/09/22 02:41:42;;;;;;;45.03;17.70;;;;;;;4.49;100.00;94897.00;5113322;28;20200;-75
2021/09/22 02:44:10;;;;;;;62.57;20.90;;;;;;;4.68;100.00;94899.59;5113600;28;20204;-75
2021/09/22 02:46:40;;;;;;;60.77;19.90;;;;;;;4.77;100.00;94905.72;5113558;28;20197;-75
2021/09/22 02:49:08;;;;;;;53.03;19.03;;;;;;;4.64;100.00;94905.97;5113516;28;20316;-75
2021/09/22 02:51:35;;;;;;;44.63;17.13;;;;;;;4.47;100.00;94904.88;5113492;28;20200;-75
2021/09/22 02:54:08;;;;;;;50.47;18.47;;;;;;;4.55;100.00;94902.44;5113545;28;20197;-76
2021/09/22 02:56:35;;;;;;;43.13;15.90;;;;;;;4.34;100.00;94889.63;5113629;28;20197;-75
2021/09/22 02:59:02;;;;;;;53.10;17.33;;;;;;;4.42;100.00;94896.72;5113318;28;20208;-75
2021/09/22 03:01:31;;;;;;;58.00;18.40;;;;;;;4.44;100.00;94893.03;5113321;28;20213;-75
2021/09/22 03:03:59;;;;;;;49.37;17.70;;;;;;;4.29;100.00;94886.63;5113380;28;20208;-75
2021/09/22 03:06:27;;;;;;;57.60;18.43;;;;;;;4.38;100.00;94885.84;5113325;28;20197;-75
2021/09/22 03:08:56;;;;;;;52.60;18.30;;;;;;;4.34;100.00;94884.47;5113062;28;20683;-75
2021/09/22 03:11:25;;;;;;;71.10;21.00;;;;;;;4.49;100.00;94881.47;5113377;28;20208;-75
2021/09/22 03:13:57;;;;;;;64.03;20.17;;;;;;;4.52;100.00;94887.19;5113145;28;20564;-75
2021/09/22 03:16:23;;;;;;;67.47;19.30;;;;;;;4.54;100.00;94882.69;5113142;28;20655;-76
2021/09/22 03:18:50;;;;;;;56.07;18.90;;;;;;;4.41;100.00;94875.22;5113527;28;20212;-75
2021/09/22 03:21:17;;;;;;;54.10;17.63;;;;;;;4.24;100.00;94868.94;5117158;28;20211;-76
2021/09/22 03:23:46;;;;;;;45.40;16.47;;;;;;;4.15;100.00;94859.41;5117047;28;20204;-75
2021/09/22 03:26:12;;;;;;;47.13;17.77;;;;;;;4.13;100.00;94860.47;5116884;28;20221;-75
2021/09/22 03:28:39;;;;;;;42.53;15.83;;;;;;;4.02;100.00;94856.25;5116962;28;20287;-75
2021/09/22 03:31:08;;;;;;;39.80;14.83;;;;;;;3.94;100.00;94856.13;5116977;28;20656;-74
2021/09/22 03:33:34;;;;;;;42.83;15.53;;;;;;;3.91;100.00;94861.53;5116917;28;20753;-75
2021/09/22 03:36:01;;;;;;;47.67;17.40;;;;;;;3.91;100.00;94848.63;5117303;28;20201;-75
2021/09/22 03:38:30;;;;;;;59.77;18.73;;;;;;;4.07;100.00;94854.09;5116936;28;20202;-75
2021/09/22 03:41:00;;;;;;;97.97;28.67;;;;;;;4.27;100.00;94862.69;5116037;28;20438;-75
2021/09/22 03:43:27;;;;;;;74.67;21.50;;;;;;;4.29;100.00;94860.78;5116709;28;20197;-75
2021/09/22 03:45:54;;;;;;;85.47;23.43;;;;;;;4.46;100.00;94861.88;5116600;27;20197;-75
2021/09/22 03:48:23;;;;;;;71.73;20.63;;;;;;;4.41;100.00;94858.88;5116755;27;20197;-75
2021/09/22 03:50:52;;;;;;;67.57;21.27;;;;;;;4.34;100.00;94862.97;5116342;28;20730;-75
2021/09/22 03:53:24;;;;;;;90.37;22.93;;;;;;;4.49;100.00;94871.13;5116080;28;20190;-75
2021/09/22 03:55:58;;;;;;;84.30;23.87;;;;;;;4.56;100.00;94870.47;5116457;28;20201;-74
2021/09/22 03:58:26;;;;;;;76.93;22.23;;;;;;;4.52;100.00;94874.25;5116624;28;20196;-74
2021/09/22 04:00:56;;;;;;;77.30;21.83;;;;;;;4.50;100.00;94880.53;5116278;28;20221;-74
2021/09/22 04:03:23;;;;;;;86.10;25.23;;;;;;;4.60;100.00;94869.22;5116550;28;20202;-74
2021/09/22 04:05:52;;;;;;;90.93;25.83;;;;;;;4.73;100.00;94868.13;5116400;28;20205;-74
2021/09/22 04:08:25;;;;;;;81.03;23.40;;;;;;;4.83;100.00;94874.13;5116122;28;20547;-74
2021/09/22 04:10:59;;;;;;;74.77;23.80;;;;;;;4.78;100.00;94871.13;5116167;28;20311;-74
2021/09/22 04:13:37;;;;;;;67.53;22.07;;;;;;;4.70;100.00;94869.22;5116100;28;20208;-74
2021/09/22 04:16:04;;;;;;;71.40;23.80;;;;;;;4.73;100.00;94879.31;5116404;28;20197;-74
2021/09/22 04:18:33;;;;;;;68.70;22.40;;;;;;;4.78;100.00;94881.47;5116215;28;20648;-75
2021/09/22 04:21:05;;;;;;;77.77;23.77;;;;;;;4.78;100.00;94879.72;5116187;28;20693;-75
2021/09/22 04:23:32;;;;;;;76.37;24.03;;;;;;;4.86;100.00;94878.19;5116031;28;20204;-75
2021/09/22 04:26:00;;;;;;;76.33;23.83;;;;;;;4.89;100.00;94870.97;5115662;28;20236;-75
2021/09/22 04:28:35;;;;;;;79.07;23.70;;;;;;;4.93;100.00;94868.91;5116016;28;20210;-75
2021/09/22 04:31:03;;;;;;;74.03;22.80;;;;;;;4.97;100.00;94880.66;5114678;28;20225;-75
2021/09/22 04:33:31;;;;;;;68.23;23.07;;;;;;;4.93;100.00;94879.28;5115868;28;20292;-75
2021/09/22 04:36:00;;;;;;;64.73;23.03;;;;;;;4.94;100.00;94879.13;5115806;28;20232;-74
2021/09/22 04:38:27;;;;;;;63.37;22.43;;;;;;;4.94;100.00;94886.09;5115833;28;20204;-75
2021/09/22 04:40:54;;;;;;;64.63;21.03;;;;;;;4.95;100.00;94892.91;5115773;28;20206;-74
2021/09/22 04:43:20;;;;;;;65.10;22.33;;;;;;;4.96;100.00;94884.16;5115682;28;20193;-75
2021/09/22 04:45:51;;;;;;;59.77;21.20;;;;;;;4.88;100.00;94886.63;5115545;28;20205;-75
2021/09/22 04:48:20;;;;;;;54.70;21.20;;;;;;;4.89;100.00;94885.69;5115663;28;20307;-74
2021/09/22 04:50:46;;;;;;;52.23;20.23;;;;;;;4.91;100.00;94888.94;5114992;28;20229;-75
2021/09/22 04:53:16;;;;;;;54.87;19.53;;;;;;;4.84;100.00;94895.63;5115625;28;20284;-75
2021/09/22 04:55:43;;;;;;;59.33;21.73;;;;;;;4.81;100.00;94900.13;5115288;28;20254;-75
2021/09/22 04:58:10;;;;;;;54.57;20.10;;;;;;;4.82;100.00;94901.75;5115383;28;20656;-75
2021/09/22 05:00:41;;;;;;;58.07;19.63;;;;;;;4.80;100.00;94897.69;5115387;28;20209;-75
2021/09/22 05:03:11;;;;;;;64.10;21.50;;;;;;;4.86;100.00;94898.91;5115026;28;20198;-75
2021/09/22 05:05:38;;;;;;;62.87;22.17;;;;;;;4.80;100.00;94895.91;5115469;28;20205;-75
2021/09/22 05:08:05;;;;;;;74.57;22.60;;;;;;;4.83;100.00;94897.41;5115314;28;20240;-74
2021/09/22 05:10:33;;;;;;;54.47;20.27;;;;;;;4.74;100.00;94896.44;5114925;28;20264;-75
2021/09/22 05:13:00;;;;;;;52.73;19.80;;;;;;;4.71;100.00;94898.50;5114879;28;20242;-74
2021/09/22 05:15:27;;;;;;;60.67;20.93;;;;;;;4.72;100.00;94898.34;5115110;28;20225;-74
2021/09/22 05:17:56;;;;;;;53.80;20.97;;;;;;;4.63;100.00;94905.16;5114836;28;20201;-75
2021/09/22 05:20:29;;;;;;;59.70;20.67;;;;;;;4.68;100.00;94906.53;5115031;28;20197;-74
2021/09/22 05:22:56;;;;;;;57.83;19.73;;;;;;;4.61;100.00;94901.91;5114769;28;20386;-74
2021/09/22 05:25:22;;;;;;;63.67;22.80;;;;;;;4.76;100.00;94899.72;5114794;28;20197;-75
2021/09/22 05:27:50;;;;;;;67.13;21.90;;;;;;;4.77;100.00;94893.59;5114350;28;20198;-74
2021/09/22 05:30:17;;;;;;;65.10;21.27;;;;;;;4.77;100.00;94893.59;5114509;28;20618;-74
2021/09/22 05:32:43;;;;;;;60.80;22.70;;;;;;;4.80;100.00;94895.91;5114826;28;20263;-75
2021/09/22 05:35:10;;;;;;;67.40;22.90;;;;;;;4.86;100.00;94898.91;5114653;28;20289;-75
2021/09/22 05:37:38;;;;;;;54.90;20.50;;;;;;;4.82;100.00;94904.34;5114600;28;20292;-74
2021/09/22 05:40:06;;;;;;;55.37;21.60;;;;;;;4.86;100.00;94893.72;5114392;28;20675;-75
2021/09/22 05:42:33;;;;;;;60.83;21.90;;;;;;;4.94;100.00;94897.25;5114157;28;20216;-75
2021/09/22 05:45:02;;;;;;;67.10;22.33;;;;;;;4.96;100.00;94897.13;5114336;28;20280;-75
2021/09/22 05:47:28;;;;;;;71.10;23.53;;;;;;;5.04;100.00;94889.47;5113893;28;20189;-75
2021/09/22 05:49:55;;;;;;;66.43;22.53;;;;;;;5.02;100.00;94896.56;5114361;28;20248;-75
2021/09/22 05:52:21;;;;;;;63.80;21.53;;;;;;;5.05;100.00;94898.88;5114225;28;20209;-75
2021/09/22 05:54:52;;;;;;;57.23;22.07;;;;;;;5.09;100.00;94897.63;5114274;28;20232;-75
2021/09/22 05:57:21;;;;;;;66.73;23.20;;;;;;;5.12;100.00;94901.72;5114081;28;20204;-75
2021/09/22 05:59:47;;;;;;;56.43;22.27;;;;;;;5.14;100.00;94900.63;5114328;28;20231;-75
2021/09/22 06:02:15;;;;;;;56.67;21.03;;;;;;;5.15;100.00;94910.03;5114247;28;20201;-75
2021/09/22 06:04:43;;;;;;;53.73;20.60;;;;;;;5.16;100.00;94910.84;5114259;28;20204;-75
2021/09/22 06:07:11;;;;;;;47.17;18.47;;;;;;;5.17;100.00;94913.28;5114111;28;20201;-75
2021/09/22 06:09:37;;;;;;;50.80;18.20;;;;;;;5.24;100.00;94913.56;5113805;28;20908;-75
2021/09/22 06:12:06;;;;;;;41.33;17.93;;;;;;;5.31;100.00;94906.88;5113905;28;20212;-75
2021/09/22 06:14:33;;;;;;;54.10;20.27;;;;;;;5.37;100.00;94908.88;5114006;28;20208;-75
2021/09/22 06:17:02;;;;;;;55.93;19.97;;;;;;;5.47;100.00;94903.69;5114032;28;20194;-75
2021/09/22 06:19:29;;;;;;;50.13;20.07;;;;;;;5.53;100.00;94907.50;5113804;28;20197;-75
2021/09/22 06:21:57;;;;;;;48.53;19.43;;;;;;;5.64;100.00;94909.09;5113716;28;20548;-75
2021/09/22 06:24:26;;;;;;;52.90;19.20;;;;;;;5.70;100.00;94913.72;5113724;28;20205;-75
2021/09/22 06:26:55;;;;;;;51.23;20.33;;;;;;;5.82;100.00;94917.75;5113640;28;20323;-75
2021/09/22 06:29:29;;;;;;;48.27;18.00;;;;;;;5.92;100.00;94900.38;5113670;28;20204;-75
2021/09/22 06:31:56;;;;;;;52.30;18.93;;;;;;;5.96;100.00;94903.53;5113774;28;20208;-75
2021/09/22 06:34:27;;;;;;;54.87;21.53;;;;;;;6.02;100.00;94900.38;5113623;28;20198;-75
2021/09/22 06:36:55;;;;;;;54.20;20.53;;;;;;;6.14;100.00;94911.34;5113534;28;20205;-76
2021/09/22 06:39:22;;;;;;;44.47;19.00;;;;;;;6.29;100.00;94904.75;5113446;28;20198;-76
2021/09/22 06:41:48;;;;;;;38.43;17.33;;;;;;;6.43;100.00;94906.00;5113636;28;20209;-76
2021/09/22 06:44:18;;;;;;;43.33;17.97;;;;;;;6.50;100.00;94910.63;5113591;28;20221;-75
2021/09/22 06:46:48;;;;;;;40.90;19.20;;;;;;;6.68;100.00;94911.44;5113488;28;20198;-75
2021/09/22 06:49:18;;;;;;;45.43;18.93;;;;;;;6.83;100.00;94917.72;5113494;28;20200;-75
2021/09/22 06:51:44;;;;;;;38.27;18.67;;;;;;;6.94;100.00;94919.28;5113468;28;20252;-75
2021/09/22 06:54:10;;;;;;;43.27;17.53;;;;;;;7.08;100.00;94914.50;5112712;28;20652;-76
2021/09/22 06:56:37;;;;;;;31.57;16.90;;;;;;;7.25;100.00;94921.47;5113424;28;20200;-75
2021/09/22 06:59:04;;;;;;;34.27;16.80;;;;;;;7.37;100.00;94915.06;5113384;28;20228;-75
2021/09/22 07:01:30;;;;;;;32.20;15.93;;;;;;;7.54;100.00;94915.16;5113149;28;20789;-75
2021/09/22 07:03:58;;;;;;;30.80;15.57;;;;;;;7.70;100.00;94917.06;5113272;28;20199;-75
2021/09/22 07:06:24;;;;;;;25.17;14.63;;;;;;;7.91;100.00;94914.06;5113278;28;20678;-76
2021/09/22 07:08:51;;;;;;;26.83;14.60;;;;;;;8.02;100.00;94923.38;5113332;28;20292;-76
2021/09/22 07:11:17;;;;;;;24.60;14.53;;;;;;;8.25;100.00;94905.44;5113278;28;20579;-76
2021/09/22 07:13:44;;;;;;;26.57;14.67;;;;;;;8.37;100.00;94908.53;5113189;28;20206;-76
2021/09/22 07:16:15;;;;;;;25.03;14.23;;;;;;;8.55;100.00;94909.28;5113199;28;20208;-76
2021/09/22 07:18:42;;;;;;;23.73;13.77;;;;;;;8.72;100.00;94909.31;5113065;28;20197;-76
2021/09/22 07:21:10;;;;;;;20.00;11.67;;;;;;;8.84;100.00;94921.84;5113312;28;20197;-76
2021/09/22 07:23:37;;;;;;;22.30;11.70;;;;;;;8.99;100.00;94918.59;5113351;28;20206;-76
2021/09/22 07:26:06;;;;;;;23.47;11.13;;;;;;;9.11;100.00;94919.09;5112942;28;20229;-75
2021/09/22 07:28:33;;;;;;;17.60;11.03;;;;;;;9.24;100.00;94915.03;5112988;28;20313;-75
2021/09/22 07:30:59;;;;;;;19.63;11.13;;;;;;;9.35;100.00;94923.50;5112846;28;20695;-76
2021/09/22 07:33:26;;;;;;;19.43;10.63;;;;;;;9.55;100.00;94927.38;5112926;28;20292;-76
2021/09/22 07:35:52;;;;;;;20.57;9.77;;;;;;;9.71;100.00;94923.94;5113155;28;20226;-76
2021/09/22 07:38:20;;;;;;;17.00;10.30;;;;;;;9.72;100.00;94919.53;5113137;28;20201;-75
2021/09/22 07:40:47;;;;;;;16.37;10.47;;;;;;;9.85;100.00;94916.41;5113036;28;20197;-76
2021/09/22 07:43:13;;;;;;;16.67;10.20;;;;;;;10.03;100.00;94918.78;5112936;28;20202;-76
2021/09/22 07:45:40;;;;;;;17.47;8.93;;;;;;;10.19;100.00;94910.88;5112755;28;20208;-76
2021/09/22 07:48:07;;;;;;;16.00;8.93;;;;;;;10.29;100.00;94919.34;5112618;28;20258;-76
2021/09/22 07:50:34;;;;;;;13.70;8.20;;;;;;;10.34;100.00;94917.06;5112640;28;20691;-77
2021/09/22 07:53:00;;;;;;;12.83;8.60;;;;;;;10.44;100.00;94918.63;5113009;28;20197;-77
2021/09/22 07:55:28;;;;;;;16.73;9.65;;;;;;;10.54;100.00;94916.63;5112367;28;20435;-76
2021/09/22 07:57:55;;;;;;;13.50;7.93;;;;;;;10.70;100.00;94920.94;5112856;28;20197;-76
2021/09/22 08:00:22;;;;;;;12.87;7.83;;;;;;;10.81;100.00;94919.72;5112620;28;20228;-76
2021/09/22 08:02:49;;;;;;;16.97;9.47;;;;;;;10.91;100.00;94922.94;5112846;28;20202;-77
2021/09/22 08:05:15;;;;;;;13.07;7.87;;;;;;;10.89;100.00;94930.97;5112861;28;20246;-75
2021/09/22 08:07:42;;;;;;;13.17;8.07;;;;;;;10.98;100.00;94929.09;5116114;28;20201;-76
2021/09/22 08:10:09;;;;;;;11.97;7.80;;;;;;;11.01;100.00;94938.41;5116209;28;20208;-76
2021/09/22 08:12:37;;;;;;;12.80;7.90;;;;;;;11.20;100.00;94937.09;5116277;28;20274;-76
2021/09/22 08:15:05;;;;;;;12.83;7.70;;;;;;;11.26;100.00;94946.88;5116305;28;20198;-76
2021/09/22 08:17:31;;;;;;;13.27;7.90;;;;;;;11.37;100.00;94956.91;5116148;28;20560;-77
2021/09/22 08:19:58;;;;;;;9.70;6.60;;;;;;;11.41;100.00;94949.53;5116319;28;20197;-76
2021/09/22 08:22:24;;;;;;;11.43;7.47;;;;;;;11.41;97.59;94960.78;5116216;28;20198;-76
2021/09/22 08:24:51;;;;;;;12.10;7.27;;;;;;;11.62;99.02;94957.53;5116169;28;20198;-77
2021/09/22 08:27:17;;;;;;;11.50;6.87;;;;;;;11.67;93.82;94959.59;5115733;28;20230;-76
2021/09/22 08:29:45;;;;;;;10.40;6.47;;;;;;;11.69;93.46;94952.41;5115875;28;20258;-77
2021/09/22 08:32:11;;;;;;;10.20;6.40;;;;;;;11.83;90.56;94948.97;5115948;28;20278;-77
2021/09/22 08:34:38;;;;;;;10.10;6.57;;;;;;;11.92;100.00;94941.06;5115843;28;20197;-76
2021/09/22 08:37:04;;;;;;;10.23;6.27;;;;;;;11.96;91.63;94943.16;5115833;28;20205;-77
2021/09/22 08:39:33;;;;;;;11.10;6.53;;;;;;;12.12;92.01;94952.63;5115553;28;20202;-76
2021/09/22 08:42:00;;;;;;;10.53;6.57;;;;;;;12.16;93.83;94948.66;5114041;28;20257;-76
2021/09/22 08:44:27;;;;;;;20.00;6.40;;;;;;;12.24;91.25;94949.56;5114598;28;20201;-78
2021/09/22 08:46:56;;;;;;;9.43;6.07;;;;;;;12.17;92.34;94949.47;5115498;28;20442;-77
2021/09/22 08:49:22;;;;;;;8.23;5.68;;;;;;;12.30;90.10;94943.59;5115580;28;20212;-76
2021/09/22 08:51:49;;;;;;;10.18;5.72;;;;;;;12.44;87.62;94940.16;5115375;28;20282;-76
2021/09/22 08:54:16;;;;;;;9.10;5.72;;;;;;;12.52;88.06;94950.53;5115424;28;20204;-77
2021/09/22 08:56:43;;;;;;;8.43;5.60;;;;;;;12.63;89.46;94948.44;5115347;28;20229;-77
2021/09/22 08:59:11;;;;;;;8.32;5.32;;;;;;;12.54;86.07;94945.94;5115403;28;20197;-77
2021/09/22 09:01:38;;;;;;;9.70;5.60;;;;;;;12.59;87.53;94948.81;5115263;28;20198;-75
2021/09/22 09:04:16;;;;;;;8.43;5.35;;;;;;;12.63;88.13;94949.25;5115406;28;20272;-76
2021/09/22 09:06:44;;;;;;;7.63;5.35;;;;;;;12.72;86.92;94955.19;5115237;28;20205;-77
2021/09/22 09:09:11;;;;;;;8.73;5.18;;;;;;;12.56;84.51;94948.38;5115001;28;20296;-76
2021/09/22 09:11:40;;;;;;;7.95;4.43;;;;;;;12.77;85.98;94950.19;5115037;28;20229;-77
2021/09/22 09:14:08;;;;;;;7.75;4.97;;;;;;;12.91;82.97;94951.97;5115062;28;20222;-77
2021/09/22 09:16:38;;;;;;;9.45;5.07;;;;;;;12.94;86.32;94949.00;5114470;28;20568;-78
2021/09/22 09:19:12;;;;;;;10.95;4.97;;;;;;;12.69;87.45;94947.69;5114817;28;20621;-77
2021/09/22 09:21:59;;;;;;;7.60;5.05;;;;;;;12.81;92.83;94956.72;5114774;28;20204;-78
2021/09/22 09:24:33;;;;;;;6.43;4.22;;;;;;;12.93;89.12;94955.22;5114955;28;20193;-77
2021/09/22 09:27:00;;;;;;;8.05;4.88;;;;;;;12.82;88.13;94955.69;5114751;28;20583;-77
2021/09/22 09:29:26;;;;;;;8.40;4.82;;;;;;;12.91;87.48;94951.97;5114711;28;20205;-77
2021/09/22 09:32:12;;;;;;;8.18;4.90;;;;;;;12.94;91.23;94949.00;5114530;28;20232;-77
2021/09/22 09:34:55;;;;;;;6.05;4.25;;;;;;;12.97;85.84;94953.03;5114726;28;20205;-77
2021/09/22 09:37:30;;;;;;;6.82;4.30;;;;;;;13.11;88.20;94939.06;5114690;28;20205;-78
2021/09/22 09:39:57;;;;;;;5.78;4.18;;;;;;;13.20;92.02;94944.19;5114479;28;20197;-78
2021/09/22 09:42:29;;;;;;;8.45;4.35;;;;;;;13.15;84.59;94942.13;5114298;28;20274;-77
2021/09/22 09:44:57;;;;;;;6.10;3.90;;;;;;;13.17;88.18;94934.88;5114378;28;20659;-78
2021/09/22 09:47:23;;;;;;;6.28;3.97;;;;;;;13.31;86.68;94941.88;5113851;28;20194;-77
2021/09/22 09:49:50;;;;;;;7.72;4.50;;;;;;;13.42;91.18;94930.09;5114317;28;20197;-77
2021/09/22 09:52:16;;;;;;;7.35;4.60;;;;;;;13.38;86.50;94928.03;5114239;28;20278;-77
2021/09/22 09:54:52;;;;;;;8.90;3.97;;;;;;;13.50;88.02;94922.06;5114013;28;20201;-77
2021/09/22 09:57:20;;;;;;;6.82;3.95;;;;;;;13.65;87.80;94927.22;5114652;28;20205;-78
2021/09/22 09:59:48;;;;;;;5.63;4.10;;;;;;;13.59;85.59;94922.78;5114163;28;20201;-77
2021/09/22 10:02:24;;;;;;;5.70;3.33;;;;;;;13.63;80.50;94928.44;5114279;28;20197;-76
2021/09/22 10:04:51;;;;;;;7.47;3.83;;;;;;;13.67;86.66;94927.06;5114080;28;20239;-77
2021/09/22 10:07:18;;;;;;;5.40;3.63;;;;;;;13.63;83.22;94924.00;5113891;28;20204;-77
2021/09/22 10:09:45;;;;;;;5.60;3.72;;;;;;;13.69;85.87;94915.38;5113843;28;20205;-78
2021/09/22 10:12:13;;;;;;;6.68;3.53;;;;;;;13.94;95.09;94908.84;5113704;28;20221;-77
2021/09/22 10:14:39;;;;;;;4.15;2.65;;;;;;;13.78;87.88;94913.41;5114021;28;20202;-76
2021/09/22 10:17:07;;;;;;;3.72;2.55;;;;;;;13.71;81.31;94917.81;5114018;28;20209;-77
2021/09/22 10:19:34;;;;;;;4.32;2.60;;;;;;;13.82;87.67;94912.03;5113610;28;20586;-77
2021/09/22 10:22:01;;;;;;;3.95;2.67;;;;;;;13.90;86.84;94908.44;5113669;28;20194;-77
2021/09/22 10:24:27;;;;;;;4.22;2.50;;;;;;;13.95;84.77;94908.66;5113943;28;20193;-78
2021/09/22 10:26:54;;;;;;;5.35;2.53;;;;;;;13.91;80.65;94901.38;5113465;28;20239;-77
2021/09/22 10:29:25;;;;;;;4.85;2.65;;;;;;;14.12;86.08;94908.34;5112901;28;20651;-78
2021/09/22 10:31:53;;;;;;;3.28;2.03;;;;;;;14.02;78.56;94901.66;5113676;27;20225;-78
2021/09/22 10:34:30;;;;;;;3.88;2.40;;;;;;;14.42;81.27;94895.75;5113654;28;20220;-77
2021/09/22 10:36:58;;;;;;;5.63;2.33;;;;;;;14.68;77.35;94894.28;5113682;28;20198;-77
2021/09/22 10:39:26;;;;;;;3.90;2.30;;;;;;;14.75;86.45;94895.88;5113618;28;20208;-77
2021/09/22 10:41:53;;;;;;;4.22;2.20;;;;;;;14.64;82.26;94893.88;5113478;28;20292;-77
2021/09/22 10:44:33;;;;;;;3.63;2.20;;;;;;;14.76;82.25;94894.09;5113354;28;20193;-77
2021/09/22 10:47:22;;;;;;;3.10;2.38;;;;;;;14.77;77.34;94886.00;5113341;28;20200;-78
2021/09/22 10:49:48;;;;;;;3.15;2.40;;;;;;;14.82;79.38;94885.38;5113478;28;20212;-78
2021/09/22 10:52:29;;;;;;;5.22;2.13;;;;;;;14.87;78.22;94882.16;5113439;28;20233;-77
2021/09/22 10:55:10;;;;;;;2.72;2.30;;;;;;;14.94;78.34;94877.75;5113189;28;20735;-76
2021/09/22 10:57:37;;;;;;;3.42;2.38;;;;;;;15.02;80.54;94877.56;5113059;28;20201;-77
2021/09/22 11:00:14;;;;;;;5.00;2.70;;;;;;;14.94;79.00;94877.75;5113264;28;20270;-77
2021/09/22 11:02:44;;;;;;;5.00;2.63;;;;;;;15.05;81.33;94873.72;5113141;28;20663;-76
2021/09/22 11:05:11;;;;;;;3.08;2.30;;;;;;;15.27;85.43;94882.22;5113311;28;20284;-77
2021/09/22 11:07:59;;;;;;;2.90;2.30;;;;;;;15.29;79.10;94867.84;5113057;28;20648;-79
2021/09/22 11:10:42;;;;;;;3.22;2.30;;;;;;;15.43;77.89;94866.03;5113358;28;20197;-77
2021/09/22 11:13:42;;;;;;;3.10;2.38;;;;;;;15.25;78.05;94868.47;5112877;28;20235;-77
2021/09/22 11:16:14;;;;;;;3.65;2.08;;;;;;;15.24;86.20;94869.47;5113039;28;20656;-78
2021/09/22 11:18:41;;;;;;;3.83;2.53;;;;;;;15.34;81.12;94862.00;5113410;28;20204;-77
2021/09/22 11:21:08;;;;;;;3.35;2.30;;;;;;;15.38;82.07;94865.81;5113156;28;20201;-77
2021/09/22 11:23:36;;;;;;;3.42;2.45;;;;;;;15.63;81.46;94863.38;5113093;28;20254;-76
2021/09/22 11:26:07;;;;;;;2.50;2.30;;;;;;;15.52;78.98;94875.34;5112920;28;20237;-77
2021/09/22 11:28:34;;;;;;;2.63;2.25;;;;;;;15.22;75.10;94872.31;5112951;28;20246;-77